Latest Weather Observations for Esperance Airport

IDW60801

Issued at 5:42 pm WST Monday 22 December 2014 (issued every 30 minutes, with the page automatically refreshed every 10 minutes)

About weather observations | Map of weather stations | Latest weather observations for WA | Other Formats
Station Details ID: 009542 Name: ESPERANCE AERO Lat: -33.68 Lon: 121.83 Height: 142.0 m
Data from the previous 72 hours. | See also: Recent months at Esperance Airport
Date/Time
WST
Temp
°C
App
Temp
°C
Dew
Point
Rel
Hum
%
Delta-T
°C
Wind Press
QNH
hPa
Press
MSL
hPa
Rain
since 9 am
mm
Dir
 
Spd
km/h
Gust
km/h
Spd
kts
Gust
kts
22/05:30pm 18.2 14.1 11.5 65 3.7 SSE 24 32 13 17 1018.2 1017.8 0.0
22/05:00pm 18.7 14.7 11.8 64 3.8 SSE 24 32 13 17 1018.0 1017.6 0.0
22/04:30pm 18.8 14.5 11.9 64 3.8 SSE 26 32 14 17 1018.0 1017.6 0.0
22/04:00pm 19.3 15.3 11.8 62 4.2 SE 24 35 13 19 1017.7 1017.3 0.0
22/03:30pm 19.8 16.4 12.6 63 4.1 SSE 22 32 12 17 1017.6 1017.2 0.0
22/03:00pm 19.6 16.2 12.6 64 4.0 SSE 22 30 12 16 1017.7 1017.3 0.0
22/02:30pm 19.5 16.5 12.7 65 3.8 SSE 20 28 11 15 1017.6 1017.2 0.0
22/02:00pm 19.5 16.2 12.7 65 3.8 SSE 22 30 12 16 1017.7 1017.3 0.0
22/01:30pm 19.7 16.8 12.9 65 3.9 SSE 20 30 11 16 1017.9 1017.5 0.0
22/01:00pm 20.1 18.1 12.8 63 4.1 SSE 15 26 8 14 1018.0 1017.6 0.0
22/12:30pm 20.7 18.9 13.2 62 4.3 SSE 15 26 8 14 1018.2 1017.8 0.0
22/12:00pm 20.9 18.8 13.6 63 4.2 SSE 17 28 9 15 1018.6 1018.2 0.0
22/11:30am 19.3 17.5 13.2 68 3.5 S 15 22 8 12 1019.0 1018.6 0.0
22/11:00am 17.8 16.5 14.7 82 1.8 S 15 20 8 11 1019.3 1018.9 0.0
22/10:30am 18.0 16.5 14.1 78 2.2 SSE 15 20 8 11 1019.2 1018.8 0.0
22/10:00am 18.3 16.9 13.4 73 2.8 SE 13 17 7 9 1019.1 1018.7 0.0
22/09:30am 18.7 17.8 13.8 73 2.8 SE 11 15 6 8 1019.0 1018.6 0.0
22/09:00am 18.1 17.5 13.6 75 2.6 SSE 9 15 5 8 1019.1 1018.7 1.0
22/08:30am 17.4 16.6 14.1 81 1.9 S 11 15 6 8 1019.3 1018.9 1.0
22/08:00am 17.3 16.8 14.8 85 1.5 S 11 15 6 8 1019.2 1018.8 1.0
22/07:41am 16.5 15.9 14.7 89 1.0 SSE 11 15 6 8 1019.2 1018.8 1.0
22/07:30am 16.2 15.8 15.2 94 0.6 SSE 11 13 6 7 1019.1 1018.7 1.0
22/07:24am 15.9 15.5 15.1 95 0.5 SSE 11 15 6 8 1019.1 1018.7 1.0
22/07:00am 15.6 15.2 15.3 98 0.2 S 11 15 6 8 1019.1 1018.7 1.0
22/06:30am 15.4 15.0 15.2 99 0.1 S 11 17 6 9 1018.8 1018.4 1.0
22/06:00am 15.3 14.9 15.1 99 0.1 S 11 13 6 7 1018.4 1018.0 1.0
22/05:30am 15.0 14.8 14.8 99 0.1 SSE 9 11 5 6 1018.1 1017.7 0.8
22/05:00am 14.8 15.1 14.6 99 0.1 S 6 7 3 4 1017.7 1017.3 0.8
22/04:30am 14.7 15.0 14.5 99 0.1 SW 6 7 3 4 1017.6 1017.2 0.8
22/04:00am 14.7 15.0 14.5 99 0.1 S 6 7 3 4 1017.5 1017.1 0.8
22/03:30am 14.7 14.8 14.5 99 0.1 SSW 7 9 4 5 1017.6 1017.2 0.8
22/03:15am 14.6 14.3 14.4 99 0.1 S 9 11 5 6 1017.6 1017.2 0.8
22/03:00am 14.7 14.1 14.5 99 0.1 S 11 13 6 7 1017.5 1017.1 0.8
22/02:41am 14.6 13.9 14.4 99 0.1 SSE 11 15 6 8 1017.4 1017.0 0.8
22/02:30am 14.5 13.8 14.3 99 0.1 S 11 15 6 8 1017.5 1017.1 0.8
22/02:26am 14.5 13.8 14.3 99 0.1 S 11 15 6 8 1017.6 1017.2 0.8
22/02:00am 14.5 13.8 14.3 99 0.1 S 11 13 6 7 1017.8 1017.4 0.8
22/01:30am 14.7 14.4 14.5 99 0.1 S 9 13 5 7 1017.8 1017.4 0.8
22/01:03am 14.7 14.8 14.4 98 0.2 S 7 9 4 5 1018.1 1017.7 0.8
22/01:00am 14.7 14.4 14.4 98 0.2 S 9 11 5 6 1018.1 1017.7 0.8
22/12:30am 14.8 14.1 14.3 97 0.3 SSW 11 13 6 7 1018.4 1018.0 0.6
22/12:00am 15.1 13.6 14.3 95 0.5 S 15 19 8 10 1018.7 1018.3 0.4
 
Date/Time
WST
Temp
°C
App
Temp
°C
Dew
Point
Rel
Hum
%
Delta-T
°C
Wind Press
QNH
hPa
Press
MSL
hPa
Rain
since 9 am
mm
Dir
 
Spd
km/h
Gust
km/h
Spd
kts
Gust
kts
21/11:43pm 15.5 14.9 14.5 94 0.6 S 11 15 6 8 1018.7 1018.3 0.2
21/11:32pm 15.6 14.6 14.5 93 0.6 SSE 13 15 7 8 1018.7 1018.3 0.2
21/11:30pm 15.7 14.6 14.4 92 0.7 S 13 15 7 8 1018.7 1018.3 0.2
21/11:00pm 15.7 15.2 13.7 88 1.1 SSE 9 13 5 7 1018.8 1018.4 0.2
21/10:30pm 16.2 15.4 14.0 87 1.3 SE 11 15 6 8 1018.6 1018.2 0.2
21/10:00pm 16.0 14.4 14.0 88 1.1 SE 15 20 8 11 1018.7 1018.3 0.2
21/09:30pm 16.2 14.9 14.7 91 0.9 SSE 15 19 8 10 1018.7 1018.3 0.2
21/09:00pm 16.1 15.3 15.1 94 0.6 S 13 17 7 9 1018.7 1018.3 0.2
21/08:55pm 16.2 15.4 15.2 94 0.6 S 13 17 7 9 1018.7 1018.3 0.2
21/08:45pm 16.0 15.2 15.2 95 0.5 SSE 13 19 7 10 1018.6 1018.2 0.2
21/08:30pm 16.1 15.0 15.3 95 0.5 SSE 15 20 8 11 1018.4 1018.0 0.2
21/08:22pm 16.4 15.3 15.4 94 0.6 SSE 15 24 8 13 1018.3 1017.9 0.2
21/08:14pm 16.4 14.9 15.4 94 0.6 SSE 17 22 9 12 1018.3 1017.9 0.2
21/08:00pm 16.6 14.8 15.6 94 0.6 SSE 19 24 10 13 1018.1 1017.7 0.0
21/07:59pm 16.6 14.8 15.5 93 0.6 SSE 19 24 10 13 1018.1 1017.7 0.0
21/07:30pm 16.7 15.8 15.9 95 0.5 SSE 15 20 8 11 1017.7 1017.3 0.0
21/07:13pm 16.6 16.1 16.0 96 0.4 SE 13 17 7 9 1017.6 1017.2 0.0
21/07:00pm 16.7 16.2 15.9 95 0.5 SSE 13 19 7 10 1017.6 1017.2 0.0
21/06:47pm 16.8 15.1 15.7 93 0.6 SSE 19 26 10 14 1017.6 1017.2 0.0
21/06:30pm 17.2 15.2 15.5 90 1.0 SSE 20 28 11 15 1017.4 1017.0 0.0
21/06:04pm 17.8 16.5 15.8 88 1.2 SSE 17 24 9 13 1017.3 1016.9 0.0
21/06:00pm 17.7 16.0 15.7 88 1.2 SSE 19 22 10 12 1017.2 1016.7 0.0
21/05:30pm 18.3 16.2 15.2 82 1.8 SSE 20 30 11 16 1017.2 1016.7 0.0
21/05:00pm 19.0 16.5 15.1 78 2.3 SSE 22 28 12 15 1016.9 1016.4 0.0
21/04:30pm 20.3 18.2 15.1 72 3.1 SSE 20 28 11 15 1016.6 1016.1 0.0
21/04:00pm 20.2 17.8 15.4 74 2.9 SSE 22 30 12 16 1016.6 1016.1 0.0
21/03:30pm 20.1 17.4 15.7 76 2.6 SSE 24 32 13 17 1016.6 1016.1 0.0
21/03:00pm 20.0 16.8 15.4 75 2.7 SSE 26 32 14 17 1016.6 1016.1 0.0
21/02:30pm 20.6 17.7 16.0 75 2.8 SSE 26 32 14 17 1016.7 1016.2 0.0
21/02:00pm 20.6 18.0 16.0 75 2.8 SE 24 32 13 17 1016.7 1016.2 0.0
21/01:30pm 20.0 18.0 15.6 76 2.6 SE 20 30 11 16 1016.8 1016.3 0.0
21/01:00pm 19.8 17.5 15.7 77 2.4 SE 22 32 12 17 1016.8 1016.3 0.0
21/12:41pm 19.3 16.9 16.5 84 1.7 SE 24 32 13 17 1016.9 1016.4 0.0
21/12:30pm 18.6 16.6 16.4 87 1.3 SE 22 32 12 17 1017.0 1016.5 0.0
21/12:18pm 18.8 16.7 16.2 85 1.6 SE 22 30 12 16 1017.1 1016.6 0.0
21/12:00pm 19.5 16.7 16.3 82 1.9 SE 26 33 14 18 1017.1 1016.6 0.0
21/11:30am 19.7 17.0 16.5 82 1.9 SSE 26 33 14 18 1017.1 1016.6 0.0
21/11:00am 19.1 16.8 16.7 86 1.5 SSE 24 33 13 18 1017.2 1016.7 0.0
21/10:30am 20.0 19.2 17.2 84 1.7 SE 17 26 9 14 1017.3 1016.9 0.0
21/10:00am 18.8 18.1 16.4 86 1.4 SE 15 19 8 10 1017.2 1016.7 0.0
21/09:30am 18.4 16.9 16.7 90 1.0 SE 20 28 11 15 1016.9 1016.4 0.0
21/09:00am 18.3 16.0 16.6 90 1.0 SE 24 30 13 16 1016.9 1016.4 14.8
21/08:30am 18.7 16.7 16.5 87 1.3 SE 22 33 12 18 1016.9 1016.4 14.8
21/08:00am 18.5 16.5 16.5 88 1.2 SE 22 35 12 19 1016.6 1016.1 14.8
21/07:30am 18.5 16.3 17.0 91 0.9 SE 24 33 13 18 1016.3 1015.9 14.8
21/07:00am 17.9 16.1 16.9 94 0.6 SE 22 30 12 16 1016.1 1015.7 14.8
21/06:30am 17.6 16.1 16.8 95 0.5 SE 20 30 11 16 1015.8 1015.4 14.8
21/06:00am 17.5 15.7 17.0 97 0.3 ESE 22 32 12 17 1015.4 1015.0 14.8
21/05:30am 17.4 16.0 17.1 98 0.2 SE 20 28 11 15 1015.1 1014.7 14.8
21/05:00am 17.2 15.8 16.9 98 0.2 SE 20 28 11 15 1014.5 1014.1 14.8
21/04:53am 17.0 15.5 16.7 98 0.2 SE 20 28 11 15 1014.5 1014.1 14.8
21/04:32am 17.0 14.7 16.7 98 0.2 SE 24 32 13 17 1014.3 1013.9 14.8
21/04:30am 16.9 14.6 16.6 98 0.2 SE 24 32 13 17 1014.3 1013.9 14.8
21/04:00am 17.2 16.0 17.0 99 0.1 SE 19 28 10 15 1014.0 1013.6 14.6
21/03:30am 17.2 15.4 16.9 98 0.2 SE 22 30 12 16 1013.8 1013.4 14.6
21/03:00am 17.5 16.7 17.2 98 0.2 SE 17 22 9 12 1013.5 1013.1 14.6
21/02:53am 17.5 16.4 17.2 98 0.2 SE 19 24 10 13 1013.4 1013.0 14.6
21/02:49am 17.4 16.1 16.9 97 0.3 SE 19 28 10 15 1013.3 1012.9 14.6
21/02:45am 17.4 16.5 16.9 97 0.3 SE 17 28 9 15 1013.3 1012.9 14.6
21/02:42am 17.3 17.1 16.8 97 0.3 SE 13 24 7 13 1013.2 1012.8 14.6
21/02:33am 17.2 17.4 16.7 97 0.3 SE 11 15 6 8 1013.2 1012.8 14.6
21/02:30am 17.2 17.4 16.7 97 0.3 SE 11 15 6 8 1013.2 1012.8 14.6
21/02:29am 17.1 17.2 16.6 97 0.3 SE 11 15 6 8 1013.2 1012.8 14.6
21/02:28am 17.1 17.2 16.6 97 0.3 SE 11 15 6 8 1013.2 1012.8 14.6
21/02:11am 16.9 17.3 16.3 96 0.4 SSE 9 11 5 6 1013.3 1012.9 14.6
21/02:00am 16.9 17.7 16.3 96 0.4 S 7 9 4 5 1013.4 1013.0 14.6
21/01:47am 17.0 18.0 16.4 96 0.4 S 6 7 3 4 1013.3 1012.9 14.6
21/01:30am 16.8 17.5 16.2 96 0.4 SSE 7 9 4 5 1013.2 1012.8 14.6
21/01:00am 16.5 17.1 15.7 95 0.5 S 7 9 4 5 1013.2 1012.8 14.6
21/12:30am 16.6 16.6 15.3 92 0.8 SSE 9 11 5 6 1012.9 1012.5 14.6
21/12:00am 16.6 16.7 15.5 93 0.6 SSE 9 11 5 6 1012.8 1012.4 14.6
 
Date/Time
WST
Temp
°C
App
Temp
°C
Dew
Point
Rel
Hum
%
Delta-T
°C
Wind Press
QNH
hPa
Press
MSL
hPa
Rain
since 9 am
mm
Dir
 
Spd
km/h
Gust
km/h
Spd
kts
Gust
kts
20/11:30pm 16.7 16.5 15.6 93 0.6 SE 11 13 6 7 1012.8 1012.4 14.6
20/11:00pm 16.7 16.1 15.6 93 0.6 ESE 13 19 7 10 1012.7 1012.3 14.6
20/10:30pm 16.8 16.2 15.7 93 0.6 ESE 13 15 7 8 1012.7 1012.3 14.6
20/10:00pm 16.9 15.6 15.8 93 0.7 E 17 24 9 13 1012.5 1012.1 14.6
20/09:30pm 16.8 15.6 16.2 96 0.4 E 17 26 9 14 1012.1 1011.7 14.6
20/09:27pm 16.8 15.6 16.2 96 0.4 E 17 26 9 14 1012.1 1011.7 14.6
20/09:00pm 16.8 15.7 16.3 97 0.3 E 17 24 9 13 1012.0 1011.6 14.6
20/08:56pm 16.9 16.2 16.4 97 0.3 E 15 24 8 13 1012.0 1011.6 14.6
20/08:30pm 16.8 15.8 16.5 98 0.2 E 17 24 9 13 1011.2 1010.8 14.6
20/08:00pm 16.9 15.4 16.7 99 0.1 E 20 26 11 14 1010.6 1010.1 14.6
20/07:39pm 17.1 15.7 16.9 99 0.1 E 20 30 11 16 1010.6 1010.1 14.6
20/07:30pm 17.1 15.3 16.9 99 0.1 E 22 30 12 16 1010.6 1010.1 14.6
20/07:00pm 17.1 16.6 16.9 99 0.1 E 15 26 8 14 1011.0 1010.5 14.6
20/06:50pm 17.1 15.3 16.9 99 0.1 ESE 22 37 12 20 1010.6 1010.1 14.4
20/06:30pm 17.1 13.8 16.9 99 0.1 E 30 43 16 23 1008.7 1008.3 14.2
20/06:09pm 17.2 13.9 17.0 99 0.1 E 30 41 16 22 1009.5 1009.0 14.2
20/06:00pm 17.4 14.9 17.2 99 0.1 E 26 33 14 18 1009.9 1009.4 14.2
20/05:32pm 17.2 14.7 17.0 99 0.1 E 26 43 14 23 1009.6 1009.1 13.8
20/05:30pm 17.2 14.7 17.0 99 0.1 E 26 43 14 23 1009.5 1009.0 13.6
20/05:00pm 17.3 12.3 17.1 99 0.1 ESE 39 50 21 27 1008.1 1007.7 12.6
20/04:30pm 17.5 13.7 17.3 99 0.1 ESE 33 48 18 26 1008.8 1008.4 11.0
20/04:07pm 17.5 12.2 17.3 99 0.1 ESE 41 56 22 30 1008.5 1008.1 10.6
20/04:00pm 17.6 13.1 17.4 99 0.1 ESE 37 56 20 30 1008.2 1007.8 10.4
20/03:58pm 17.5 13.0 17.3 99 0.1 ESE 37 56 20 30 1008.3 1007.9 10.4
20/03:30pm 17.7 14.0 17.5 99 0.1 ESE 33 46 18 25 1008.4 1008.0 8.8
20/03:00pm 17.7 13.7 17.5 99 0.1 SE 35 48 19 26 1008.4 1008.0 7.0
20/02:57pm 17.8 13.8 17.6 99 0.1 SSE 35 54 19 29 1008.4 1008.0 7.0
20/02:49pm 17.8 13.0 17.6 99 0.1 S 39 54 21 29 1008.4 1008.0 6.6
20/02:30pm 18.3 12.8 17.7 96 0.4 SSW 43 61 23 33 1009.0 1008.6 1.6
20/02:26pm 18.3 14.3 17.5 95 0.5 S 35 57 19 31 1009.4 1008.9 1.6
20/02:23pm 18.3 14.6 17.5 95 0.5 SSE 33 50 18 27 1008.3 1007.9 1.4
20/02:21pm 18.3 14.6 17.5 95 0.5 SE 33 48 18 26 1007.5 1007.1 1.4
20/02:00pm 18.7 14.3 17.5 93 0.7 SE 37 50 20 27 1005.5 1005.1 1.2
20/01:30pm 19.5 15.0 18.2 92 0.8 SE 39 52 21 28 1004.3 1003.8 1.2
20/01:00pm 20.2 16.0 18.1 88 1.3 SSE 37 50 20 27 1005.3 1004.9 1.2
20/12:57pm 20.3 16.5 18.2 88 1.3 SSE 35 46 19 25 1005.5 1005.1 1.0
20/12:38pm 20.0 17.2 18.1 89 1.2 S 30 41 16 22 1005.6 1005.2 0.8
20/12:30pm 20.4 16.8 17.2 82 2.0 S 32 41 17 22 1006.3 1005.9 0.2
20/12:00pm 24.3 19.6 15.8 59 5.2 SSE 35 52 19 28 1006.0 1005.6 0.0
20/11:42am 25.2 20.8 15.2 54 6.1 S 32 50 17 27 1006.3 1005.9 0.0
20/11:34am 28.9 25.6 12.8 37 9.5 NNW 22 37 12 20 1006.4 1006.0 0.0
20/11:30am 34.7 31.3 12.4 26 13.4 N 22 37 12 20 1006.1 1005.7 0.0
20/11:00am 34.0 30.4 11.8 26 13.2 NNE 22 35 12 19 1006.7 1006.3 0.0
20/10:30am 32.6 28.4 11.2 27 12.5 NNE 24 37 13 20 1007.4 1007.0 0.0
20/10:00am 31.7 26.5 11.5 29 11.9 NNE 30 41 16 22 1008.0 1007.6 0.0
20/09:30am 30.5 25.9 12.4 33 10.7 NNE 28 37 15 20 1008.8 1008.4 0.0
20/09:00am 28.1 23.5 12.4 37 9.2 NNE 28 37 15 20 1009.5 1009.0 0.0
20/08:30am 24.6 21.0 13.2 49 6.7 NNE 24 35 13 19 1010.1 1009.6 0.0
20/08:00am 23.5 20.0 13.4 53 5.9 NNE 24 35 13 19 1010.5 1010.0 0.0
20/07:30am 21.3 18.5 13.2 60 4.7 NNE 20 33 11 18 1010.8 1010.3 0.0
20/07:00am 20.6 17.4 13.1 62 4.3 NNE 22 32 12 17 1011.2 1010.8 0.0
20/06:30am 20.6 16.6 13.1 62 4.3 NNE 26 39 14 21 1011.6 1011.2 0.0
20/06:00am 19.2 16.0 13.2 68 3.4 NNE 22 33 12 18 1011.5 1011.1 0.0
20/05:30am 17.9 14.6 12.8 72 2.9 NE 22 33 12 18 1011.3 1010.9 0.0
20/05:00am 16.8 13.8 12.7 77 2.3 NE 20 32 11 17 1011.4 1011.0 0.0
20/04:30am 16.3 13.3 12.7 79 2.0 NNE 20 30 11 16 1011.5 1011.1 0.0
20/04:00am 16.3 13.1 13.0 81 1.9 NE 22 32 12 17 1010.8 1010.3 0.0
20/03:30am 16.1 13.2 13.0 82 1.7 NNE 20 32 11 17 1011.3 1010.9 0.0
20/03:00am 16.2 13.6 13.1 82 1.7 NE 19 30 10 16 1011.7 1011.3 0.0
20/02:30am 16.0 14.1 13.1 83 1.6 NE 15 22 8 12 1012.1 1011.7 0.0
20/02:00am 16.2 14.0 13.3 83 1.6 NE 17 22 9 12 1012.3 1011.9 0.0
20/01:30am 16.4 14.1 13.1 81 1.9 NE 17 28 9 15 1012.6 1012.2 0.0
20/01:00am 16.7 13.7 12.7 77 2.2 ENE 20 30 11 16 1012.1 1011.7 0.0
20/12:30am 17.3 14.2 12.2 72 2.8 ENE 20 32 11 17 1012.7 1012.3 0.0
20/12:00am 17.7 14.6 12.2 70 3.1 ENE 20 30 11 16 1013.2 1012.8 0.0
 
Date/Time
WST
Temp
°C
App
Temp
°C
Dew
Point
Rel
Hum
%
Delta-T
°C
Wind Press
QNH
hPa
Press
MSL
hPa
Rain
since 9 am
mm
Dir
 
Spd
km/h
Gust
km/h
Spd
kts
Gust
kts
19/11:30pm 18.0 15.6 12.7 71 3.0 ENE 17 24 9 13 1013.4 1013.0 0.0
19/11:00pm 18.5 15.6 12.9 70 3.2 ENE 20 32 11 17 1013.7 1013.3 0.0
19/10:30pm 18.8 15.7 13.4 71 3.1 ENE 22 32 12 17 1013.9 1013.5 0.0
19/10:00pm 19.1 16.1 13.7 71 3.1 ENE 22 32 12 17 1014.2 1013.8 0.0
19/09:30pm 19.5 16.5 13.7 69 3.3 ENE 22 33 12 18 1014.6 1014.2 0.0
19/09:00pm 20.2 16.7 13.4 65 3.9 E 24 35 13 19 1014.2 1013.8 0.0
19/08:30pm 20.4 17.5 14.1 67 3.7 E 22 32 12 17 1014.2 1013.8 0.0
19/08:00pm 20.8 17.9 14.0 65 4.0 E 22 32 12 17 1014.0 1013.6 0.0
19/07:30pm 20.3 17.4 14.0 67 3.7 ESE 22 28 12 15 1013.6 1013.2 0.0
19/07:00pm 22.1 18.3 13.5 58 5.0 ESE 26 30 14 16 1013.5 1013.1 0.0
19/06:30pm 23.9 20.0 13.4 51 6.1 ESE 26 35 14 19 1013.5 1013.1 0.0
19/06:00pm 25.2 20.7 13.7 49 6.8 ESE 30 39 16 21 1013.4 1013.0 0.0

Other Formats:

Comma delimited format used in spreadsheet applications
http://www.bom.gov.au/fwo/IDW60801/IDW60801.95638.axf

JavaScript Object Notation format (JSON) in row-major order
http://www.bom.gov.au/fwo/IDW60801/IDW60801.95638.json